sensor_id;sensor_type;location;lat;lon;timestamp;temperature;humidity
11089;DHT22;5598;48.648;8.908;2023-04-30T00:00:41;11.80;99.90
11089;DHT22;5598;48.648;8.908;2023-04-30T00:03:09;11.80;99.90
11089;DHT22;5598;48.648;8.908;2023-04-30T00:05:36;11.80;99.90
11089;DHT22;5598;48.648;8.908;2023-04-30T00:08:03;11.80;99.90
11089;DHT22;5598;48.648;8.908;2023-04-30T00:10:29;11.80;99.90
11089;DHT22;5598;48.648;8.908;2023-04-30T00:12:56;11.80;99.90
11089;DHT22;5598;48.648;8.908;2023-04-30T00:15:23;11.80;99.90
11089;DHT22;5598;48.648;8.908;2023-04-30T00:17:50;11.70;99.90
11089;DHT22;5598;48.648;8.908;2023-04-30T00:20:19;11.70;99.90
11089;DHT22;5598;48.648;8.908;2023-04-30T00:22:45;11.60;99.90
11089;DHT22;5598;48.648;8.908;2023-04-30T00:25:12;11.60;99.90
11089;DHT22;5598;48.648;8.908;2023-04-30T00:27:39;11.50;99.90
11089;DHT22;5598;48.648;8.908;2023-04-30T00:30:07;11.50;99.90
11089;DHT22;5598;48.648;8.908;2023-04-30T00:32:33;11.50;99.90
11089;DHT22;5598;48.648;8.908;2023-04-30T00:35:00;11.50;99.90
11089;DHT22;5598;48.648;8.908;2023-04-30T00:37:29;11.40;99.90
11089;DHT22;5598;48.648;8.908;2023-04-30T00:39:56;11.40;99.90
11089;DHT22;5598;48.648;8.908;2023-04-30T00:42:23;11.30;99.90
11089;DHT22;5598;48.648;8.908;2023-04-30T00:44:50;11.20;99.90
11089;DHT22;5598;48.648;8.908;2023-04-30T00:47:16;11.10;99.90
11089;DHT22;5598;48.648;8.908;2023-04-30T00:49:44;11.20;99.90
11089;DHT22;5598;48.648;8.908;2023-04-30T00:52:12;11.10;99.90
11089;DHT22;5598;48.648;8.908;2023-04-30T00:54:40;11.10;99.90
11089;DHT22;5598;48.648;8.908;2023-04-30T00:57:08;11.20;99.90
11089;DHT22;5598;48.648;8.908;2023-04-30T00:59:37;11.20;99.90
11089;DHT22;5598;48.648;8.908;2023-04-30T01:02:04;11.20;99.90
11089;DHT22;5598;48.648;8.908;2023-04-30T01:04:31;11.20;99.90
11089;DHT22;5598;48.648;8.908;2023-04-30T01:06:58;11.20;99.90
11089;DHT22;5598;48.648;8.908;2023-04-30T01:09:26;11.20;99.90
11089;DHT22;5598;48.648;8.908;2023-04-30T01:12:07;11.20;99.90
11089;DHT22;5598;48.648;8.908;2023-04-30T01:14:44;11.10;99.90
11089;DHT22;5598;48.648;8.908;2023-04-30T01:17:16;11.10;99.90
11089;DHT22;5598;48.648;8.908;2023-04-30T01:19:45;11.10;99.90
11089;DHT22;5598;48.648;8.908;2023-04-30T01:22:26;11.10;99.90
11089;DHT22;5598;48.648;8.908;2023-04-30T01:25:06;11.10;99.90
11089;DHT22;5598;48.648;8.908;2023-04-30T01:28:00;11.10;99.90
11089;DHT22;5598;48.648;8.908;2023-04-30T01:30:29;11.10;99.90
11089;DHT22;5598;48.648;8.908;2023-04-30T01:32:56;11.00;99.90
11089;DHT22;5598;48.648;8.908;2023-04-30T01:35:32;11.00;99.90
11089;DHT22;5598;48.648;8.908;2023-04-30T01:38:09;10.90;99.90
11089;DHT22;5598;48.648;8.908;2023-04-30T01:40:43;11.00;99.90
11089;DHT22;5598;48.648;8.908;2023-04-30T01:43:21;11.00;99.90
11089;DHT22;5598;48.648;8.908;2023-04-30T01:45:56;11.00;99.90
11089;DHT22;5598;48.648;8.908;2023-04-30T01:48:31;11.00;99.90
11089;DHT22;5598;48.648;8.908;2023-04-30T01:51:07;11.00;99.90
11089;DHT22;5598;48.648;8.908;2023-04-30T01:53:39;11.00;99.90
11089;DHT22;5598;48.648;8.908;2023-04-30T01:56:11;11.00;99.90
11089;DHT22;5598;48.648;8.908;2023-04-30T01:58:41;10.90;99.90
11089;DHT22;5598;48.648;8.908;2023-04-30T02:01:24;10.90;99.90
11089;DHT22;5598;48.648;8.908;2023-04-30T02:03:51;10.90;99.90
11089;DHT22;5598;48.648;8.908;2023-04-30T02:06:18;10.90;99.90
11089;DHT22;5598;48.648;8.908;2023-04-30T02:08:45;10.90;99.90
11089;DHT22;5598;48.648;8.908;2023-04-30T02:11:12;10.90;99.90
11089;DHT22;5598;48.648;8.908;2023-04-30T02:13:38;10.90;99.90
11089;DHT22;5598;48.648;8.908;2023-04-30T02:16:07;10.80;99.90
11089;DHT22;5598;48.648;8.908;2023-04-30T02:18:33;10.80;99.90
11089;DHT22;5598;48.648;8.908;2023-04-30T02:21:00;10.70;99.90
11089;DHT22;5598;48.648;8.908;2023-04-30T02:23:27;10.70;99.90
11089;DHT22;5598;48.648;8.908;2023-04-30T02:25:54;10.70;99.90
11089;DHT22;5598;48.648;8.908;2023-04-30T02:28:20;10.70;99.90
11089;DHT22;5598;48.648;8.908;2023-04-30T02:30:47;10.80;99.90
11089;DHT22;5598;48.648;8.908;2023-04-30T02:33:15;10.80;99.90
11089;DHT22;5598;48.648;8.908;2023-04-30T02:35:42;10.80;99.90
11089;DHT22;5598;48.648;8.908;2023-04-30T02:38:09;10.90;99.90
11089;DHT22;5598;48.648;8.908;2023-04-30T02:40:36;10.90;99.90
11089;DHT22;5598;48.648;8.908;2023-04-30T02:43:02;10.90;99.90
11089;DHT22;5598;48.648;8.908;2023-04-30T02:45:31;10.90;99.90
11089;DHT22;5598;48.648;8.908;2023-04-30T02:47:58;10.90;99.90
11089;DHT22;5598;48.648;8.908;2023-04-30T02:50:26;10.90;99.90
11089;DHT22;5598;48.648;8.908;2023-04-30T02:52:53;10.90;99.90
11089;DHT22;5598;48.648;8.908;2023-04-30T02:55:20;10.80;99.90
11089;DHT22;5598;48.648;8.908;2023-04-30T02:57:47;10.80;99.90
11089;DHT22;5598;48.648;8.908;2023-04-30T03:00:14;10.70;99.90
11089;DHT22;5598;48.648;8.908;2023-04-30T03:02:40;10.60;99.90
11089;DHT22;5598;48.648;8.908;2023-04-30T03:05:07;10.60;99.90
11089;DHT22;5598;48.648;8.908;2023-04-30T03:07:36;10.50;99.90
11089;DHT22;5598;48.648;8.908;2023-04-30T03:10:03;10.60;99.90
11089;DHT22;5598;48.648;8.908;2023-04-30T03:12:30;10.60;99.90
11089;DHT22;5598;48.648;8.908;2023-04-30T03:14:57;10.60;99.90
11089;DHT22;5598;48.648;8.908;2023-04-30T03:17:24;10.50;99.90
11089;DHT22;5598;48.648;8.908;2023-04-30T03:19:50;10.50;99.90
11089;DHT22;5598;48.648;8.908;2023-04-30T03:22:17;10.40;99.90
11089;DHT22;5598;48.648;8.908;2023-04-30T03:24:46;10.40;99.90
11089;DHT22;5598;48.648;8.908;2023-04-30T03:27:12;10.40;99.90
11089;DHT22;5598;48.648;8.908;2023-04-30T03:29:41;10.40;99.90
11089;DHT22;5598;48.648;8.908;2023-04-30T03:32:08;10.40;99.90
11089;DHT22;5598;48.648;8.908;2023-04-30T03:34:35;10.40;99.90
11089;DHT22;5598;48.648;8.908;2023-04-30T03:37:01;10.30;99.90
11089;DHT22;5598;48.648;8.908;2023-04-30T03:39:28;10.30;99.90
11089;DHT22;5598;48.648;8.908;2023-04-30T03:41:56;10.30;99.90
11089;DHT22;5598;48.648;8.908;2023-04-30T03:44:23;10.30;99.90
11089;DHT22;5598;48.648;8.908;2023-04-30T03:46:50;10.30;99.90
11089;DHT22;5598;48.648;8.908;2023-04-30T03:49:17;10.20;99.90
11089;DHT22;5598;48.648;8.908;2023-04-30T03:51:44;10.20;99.90
11089;DHT22;5598;48.648;8.908;2023-04-30T03:54:11;10.20;99.90
11089;DHT22;5598;48.648;8.908;2023-04-30T03:56:38;10.20;99.90
11089;DHT22;5598;48.648;8.908;2023-04-30T03:59:07;10.20;99.90
11089;DHT22;5598;48.648;8.908;2023-04-30T04:01:33;10.20;99.90
11089;DHT22;5598;48.648;8.908;2023-04-30T04:04:00;10.20;99.90
11089;DHT22;5598;48.648;8.908;2023-04-30T04:06:27;10.20;99.90
11089;DHT22;5598;48.648;8.908;2023-04-30T04:08:54;10.30;99.90
11089;DHT22;5598;48.648;8.908;2023-04-30T04:11:21;10.30;99.90
11089;DHT22;5598;48.648;8.908;2023-04-30T04:13:48;10.30;99.90
11089;DHT22;5598;48.648;8.908;2023-04-30T04:16:16;10.30;99.90
11089;DHT22;5598;48.648;8.908;2023-04-30T04:18:43;10.20;99.90
11089;DHT22;5598;48.648;8.908;2023-04-30T04:21:10;10.20;99.90
11089;DHT22;5598;48.648;8.908;2023-04-30T04:23:37;10.20;99.90
11089;DHT22;5598;48.648;8.908;2023-04-30T04:26:04;10.10;99.90
11089;DHT22;5598;48.648;8.908;2023-04-30T04:28:30;10.10;99.90
11089;DHT22;5598;48.648;8.908;2023-04-30T04:30:57;10.10;99.90
11089;DHT22;5598;48.648;8.908;2023-04-30T04:33:25;10.00;99.90
11089;DHT22;5598;48.648;8.908;2023-04-30T04:35:53;10.00;99.90
11089;DHT22;5598;48.648;8.908;2023-04-30T04:38:21;10.00;99.90
11089;DHT22;5598;48.648;8.908;2023-04-30T04:40:51;10.00;99.90
11089;DHT22;5598;48.648;8.908;2023-04-30T04:43:18;10.00;99.90
11089;DHT22;5598;48.648;8.908;2023-04-30T04:45:45;9.90;99.90
11089;DHT22;5598;48.648;8.908;2023-04-30T04:48:12;9.90;99.90
11089;DHT22;5598;48.648;8.908;2023-04-30T04:50:40;10.00;99.90
11089;DHT22;5598;48.648;8.908;2023-04-30T04:53:07;9.90;99.90
11089;DHT22;5598;48.648;8.908;2023-04-30T04:55:34;9.90;99.90
11089;DHT22;5598;48.648;8.908;2023-04-30T04:58:01;9.80;99.90
11089;DHT22;5598;48.648;8.908;2023-04-30T05:00:28;9.80;99.90
11089;DHT22;5598;48.648;8.908;2023-04-30T05:02:55;9.80;99.90
11089;DHT22;5598;48.648;8.908;2023-04-30T05:05:22;9.80;99.90
11089;DHT22;5598;48.648;8.908;2023-04-30T05:07:50;9.90;99.90
11089;DHT22;5598;48.648;8.908;2023-04-30T05:10:19;9.90;99.90
11089;DHT22;5598;48.648;8.908;2023-04-30T05:12:46;10.00;99.90
11089;DHT22;5598;48.648;8.908;2023-04-30T05:15:12;10.00;99.90
11089;DHT22;5598;48.648;8.908;2023-04-30T05:17:39;10.00;99.90
11089;DHT22;5598;48.648;8.908;2023-04-30T05:20:07;10.10;99.90
11089;DHT22;5598;48.648;8.908;2023-04-30T05:22:34;10.10;99.90
11089;DHT22;5598;48.648;8.908;2023-04-30T05:25:02;10.20;99.90
11089;DHT22;5598;48.648;8.908;2023-04-30T05:27:29;10.30;99.90
11089;DHT22;5598;48.648;8.908;2023-04-30T05:29:56;10.30;99.90
11089;DHT22;5598;48.648;8.908;2023-04-30T05:32:23;10.40;99.90
11089;DHT22;5598;48.648;8.908;2023-04-30T05:34:50;10.50;99.90
11089;DHT22;5598;48.648;8.908;2023-04-30T05:37:17;10.60;99.90
11089;DHT22;5598;48.648;8.908;2023-04-30T05:39:45;10.60;99.90
11089;DHT22;5598;48.648;8.908;2023-04-30T05:42:13;10.70;99.90
11089;DHT22;5598;48.648;8.908;2023-04-30T05:44:40;10.80;99.90
11089;DHT22;5598;48.648;8.908;2023-04-30T05:47:07;10.90;99.90
11089;DHT22;5598;48.648;8.908;2023-04-30T05:49:33;11.00;99.90
11089;DHT22;5598;48.648;8.908;2023-04-30T05:52:00;11.10;99.90
11089;DHT22;5598;48.648;8.908;2023-04-30T05:54:28;11.20;99.90
11089;DHT22;5598;48.648;8.908;2023-04-30T05:56:55;11.30;99.90
11089;DHT22;5598;48.648;8.908;2023-04-30T05:59:23;11.50;99.90
11089;DHT22;5598;48.648;8.908;2023-04-30T06:01:50;11.60;99.90
11089;DHT22;5598;48.648;8.908;2023-04-30T06:04:17;11.70;99.90
11089;DHT22;5598;48.648;8.908;2023-04-30T06:06:44;11.80;99.90
11089;DHT22;5598;48.648;8.908;2023-04-30T06:09:10;11.90;99.90
11089;DHT22;5598;48.648;8.908;2023-04-30T06:11:37;11.90;99.90
11089;DHT22;5598;48.648;8.908;2023-04-30T06:14:04;12.00;99.90
11089;DHT22;5598;48.648;8.908;2023-04-30T06:16:32;12.10;99.90
11089;DHT22;5598;48.648;8.908;2023-04-30T06:18:59;12.10;99.90
11089;DHT22;5598;48.648;8.908;2023-04-30T06:21:26;12.20;99.90
11089;DHT22;5598;48.648;8.908;2023-04-30T06:23:52;12.30;99.90
11089;DHT22;5598;48.648;8.908;2023-04-30T06:26:19;12.30;99.90
11089;DHT22;5598;48.648;8.908;2023-04-30T06:28:46;12.40;99.90
11089;DHT22;5598;48.648;8.908;2023-04-30T06:31:13;12.50;99.90
11089;DHT22;5598;48.648;8.908;2023-04-30T06:33:41;12.70;99.90
11089;DHT22;5598;48.648;8.908;2023-04-30T06:36:08;12.80;99.90
11089;DHT22;5598;48.648;8.908;2023-04-30T06:38:34;12.90;99.90
11089;DHT22;5598;48.648;8.908;2023-04-30T06:41:01;12.90;99.90
11089;DHT22;5598;48.648;8.908;2023-04-30T06:43:28;12.90;99.90
11089;DHT22;5598;48.648;8.908;2023-04-30T06:45:55;12.80;99.90
11089;DHT22;5598;48.648;8.908;2023-04-30T06:48:22;12.80;99.90
11089;DHT22;5598;48.648;8.908;2023-04-30T06:50:50;12.90;99.90
11089;DHT22;5598;48.648;8.908;2023-04-30T06:53:17;12.90;99.90
11089;DHT22;5598;48.648;8.908;2023-04-30T06:55:44;12.90;99.90
11089;DHT22;5598;48.648;8.908;2023-04-30T06:58:12;13.10;99.90
11089;DHT22;5598;48.648;8.908;2023-04-30T07:00:38;13.20;99.90
11089;DHT22;5598;48.648;8.908;2023-04-30T07:03:05;13.20;99.90
11089;DHT22;5598;48.648;8.908;2023-04-30T07:05:32;13.20;99.90
11089;DHT22;5598;48.648;8.908;2023-04-30T07:08:02;13.20;99.90
11089;DHT22;5598;48.648;8.908;2023-04-30T07:10:29;13.30;99.90
11089;DHT22;5598;48.648;8.908;2023-04-30T07:12:56;13.30;99.90
11089;DHT22;5598;48.648;8.908;2023-04-30T07:15:23;13.40;99.90
11089;DHT22;5598;48.648;8.908;2023-04-30T07:17:50;13.40;99.90
11089;DHT22;5598;48.648;8.908;2023-04-30T07:20:17;13.40;99.90
11089;DHT22;5598;48.648;8.908;2023-04-30T07:22:44;13.30;99.90
11089;DHT22;5598;48.648;8.908;2023-04-30T07:25:13;13.40;99.90
11089;DHT22;5598;48.648;8.908;2023-04-30T07:27:40;13.50;99.90
11089;DHT22;5598;48.648;8.908;2023-04-30T07:30:07;13.70;99.90
11089;DHT22;5598;48.648;8.908;2023-04-30T07:32:35;13.90;99.40
11089;DHT22;5598;48.648;8.908;2023-04-30T07:35:03;14.20;99.00
11089;DHT22;5598;48.648;8.908;2023-04-30T07:37:30;14.30;98.20
11089;DHT22;5598;48.648;8.908;2023-04-30T07:39:56;14.60;98.40
11089;DHT22;5598;48.648;8.908;2023-04-30T07:42:25;14.80;98.40
11089;DHT22;5598;48.648;8.908;2023-04-30T07:44:52;14.80;97.60
11089;DHT22;5598;48.648;8.908;2023-04-30T07:47:18;14.90;97.20
11089;DHT22;5598;48.648;8.908;2023-04-30T07:49:45;15.00;97.80
11089;DHT22;5598;48.648;8.908;2023-04-30T07:52:12;15.20;97.70
11089;DHT22;5598;48.648;8.908;2023-04-30T07:54:39;15.20;96.70
11089;DHT22;5598;48.648;8.908;2023-04-30T07:57:06;15.40;96.10
11089;DHT22;5598;48.648;8.908;2023-04-30T07:59:34;15.50;96.20
11089;DHT22;5598;48.648;8.908;2023-04-30T08:02:01;15.90;95.80
11089;DHT22;5598;48.648;8.908;2023-04-30T08:04:28;16.40;94.40
11089;DHT22;5598;48.648;8.908;2023-04-30T08:06:55;16.60;94.00
11089;DHT22;5598;48.648;8.908;2023-04-30T08:09:21;16.80;93.20
11089;DHT22;5598;48.648;8.908;2023-04-30T08:11:48;16.90;92.40
11089;DHT22;5598;48.648;8.908;2023-04-30T08:14:15;16.90;91.80
11089;DHT22;5598;48.648;8.908;2023-04-30T08:16:43;16.80;90.90
11089;DHT22;5598;48.648;8.908;2023-04-30T08:19:10;16.80;91.10
11089;DHT22;5598;48.648;8.908;2023-04-30T08:21:37;17.00;90.70
11089;DHT22;5598;48.648;8.908;2023-04-30T08:24:04;17.00;90.70
11089;DHT22;5598;48.648;8.908;2023-04-30T08:26:31;17.10;90.60
11089;DHT22;5598;48.648;8.908;2023-04-30T08:28:57;17.20;90.40
11089;DHT22;5598;48.648;8.908;2023-04-30T08:31:24;17.20;90.00
11089;DHT22;5598;48.648;8.908;2023-04-30T08:33:52;16.70;88.80
11089;DHT22;5598;48.648;8.908;2023-04-30T08:36:19;16.30;89.60
11089;DHT22;5598;48.648;8.908;2023-04-30T08:38:46;16.10;90.10
11089;DHT22;5598;48.648;8.908;2023-04-30T08:41:13;16.20;90.90
11089;DHT22;5598;48.648;8.908;2023-04-30T08:43:41;16.50;91.50
11089;DHT22;5598;48.648;8.908;2023-04-30T08:46:10;16.50;90.10
11089;DHT22;5598;48.648;8.908;2023-04-30T08:48:39;16.10;89.80
11089;DHT22;5598;48.648;8.908;2023-04-30T08:51:07;15.90;91.20
11089;DHT22;5598;48.648;8.908;2023-04-30T08:53:35;15.90;90.20
11089;DHT22;5598;48.648;8.908;2023-04-30T08:56:03;15.70;89.60
11089;DHT22;5598;48.648;8.908;2023-04-30T08:58:30;15.80;90.80
11089;DHT22;5598;48.648;8.908;2023-04-30T09:00:57;15.80;90.10
11089;DHT22;5598;48.648;8.908;2023-04-30T09:03:24;15.90;90.30
11089;DHT22;5598;48.648;8.908;2023-04-30T09:05:51;16.30;90.40
11089;DHT22;5598;48.648;8.908;2023-04-30T09:08:39;17.50;89.70
11089;DHT22;5598;48.648;8.908;2023-04-30T09:11:19;18.10;85.70
11089;DHT22;5598;48.648;8.908;2023-04-30T09:13:49;18.40;84.90
11089;DHT22;5598;48.648;8.908;2023-04-30T09:16:17;18.10;86.30
11089;DHT22;5598;48.648;8.908;2023-04-30T09:18:44;17.80;83.50
11089;DHT22;5598;48.648;8.908;2023-04-30T09:21:10;17.60;85.00
11089;DHT22;5598;48.648;8.908;2023-04-30T09:23:53;17.40;82.30
11089;DHT22;5598;48.648;8.908;2023-04-30T09:26:20;17.10;84.80
11089;DHT22;5598;48.648;8.908;2023-04-30T09:28:54;16.80;84.90
11089;DHT22;5598;48.648;8.908;2023-04-30T09:31:22;16.70;85.60
11089;DHT22;5598;48.648;8.908;2023-04-30T09:33:49;16.70;86.50
11089;DHT22;5598;48.648;8.908;2023-04-30T09:36:16;17.00;87.40
11089;DHT22;5598;48.648;8.908;2023-04-30T09:38:44;17.30;87.30
11089;DHT22;5598;48.648;8.908;2023-04-30T09:41:21;17.50;85.60
11089;DHT22;5598;48.648;8.908;2023-04-30T09:43:48;17.60;82.30
11089;DHT22;5598;48.648;8.908;2023-04-30T09:46:18;17.70;84.00
11089;DHT22;5598;48.648;8.908;2023-04-30T09:48:45;17.70;84.30
11089;DHT22;5598;48.648;8.908;2023-04-30T09:51:13;17.70;85.40
11089;DHT22;5598;48.648;8.908;2023-04-30T09:53:41;17.50;84.70
11089;DHT22;5598;48.648;8.908;2023-04-30T09:56:11;17.40;85.90
11089;DHT22;5598;48.648;8.908;2023-04-30T09:58:43;17.20;84.70
11089;DHT22;5598;48.648;8.908;2023-04-30T10:01:10;17.10;83.10
11089;DHT22;5598;48.648;8.908;2023-04-30T10:03:39;17.90;88.10
11089;DHT22;5598;48.648;8.908;2023-04-30T10:06:07;19.00;83.80
11089;DHT22;5598;48.648;8.908;2023-04-30T10:08:38;19.20;80.30
11089;DHT22;5598;48.648;8.908;2023-04-30T10:11:07;18.90;79.20
11089;DHT22;5598;48.648;8.908;2023-04-30T10:13:41;18.60;79.40
11089;DHT22;5598;48.648;8.908;2023-04-30T10:16:14;18.10;79.10
11089;DHT22;5598;48.648;8.908;2023-04-30T10:18:45;17.90;78.70
11089;DHT22;5598;48.648;8.908;2023-04-30T10:21:16;17.80;82.40
11089;DHT22;5598;48.648;8.908;2023-04-30T10:23:43;17.80;81.40
11089;DHT22;5598;48.648;8.908;2023-04-30T10:26:11;17.80;80.70
11089;DHT22;5598;48.648;8.908;2023-04-30T10:28:39;17.90;82.00
11089;DHT22;5598;48.648;8.908;2023-04-30T10:31:08;18.30;80.00
11089;DHT22;5598;48.648;8.908;2023-04-30T10:33:41;18.60;79.30
11089;DHT22;5598;48.648;8.908;2023-04-30T10:36:20;18.70;79.50
11089;DHT22;5598;48.648;8.908;2023-04-30T10:38:50;18.50;78.70
11089;DHT22;5598;48.648;8.908;2023-04-30T10:41:19;18.30;78.00
11089;DHT22;5598;48.648;8.908;2023-04-30T10:43:47;17.80;76.60
11089;DHT22;5598;48.648;8.908;2023-04-30T10:46:21;17.30;78.10
11089;DHT22;5598;48.648;8.908;2023-04-30T10:48:48;17.10;79.30
11089;DHT22;5598;48.648;8.908;2023-04-30T10:51:16;17.00;79.30
11089;DHT22;5598;48.648;8.908;2023-04-30T10:53:43;16.90;80.50
11089;DHT22;5598;48.648;8.908;2023-04-30T10:56:10;17.10;82.00
11089;DHT22;5598;48.648;8.908;2023-04-30T10:58:38;17.60;79.80
11089;DHT22;5598;48.648;8.908;2023-04-30T11:01:08;18.20;78.50
11089;DHT22;5598;48.648;8.908;2023-04-30T11:03:37;18.60;78.90
11089;DHT22;5598;48.648;8.908;2023-04-30T11:06:10;18.80;76.70
11089;DHT22;5598;48.648;8.908;2023-04-30T11:08:39;18.70;76.30
11089;DHT22;5598;48.648;8.908;2023-04-30T11:11:08;18.80;76.40
11089;DHT22;5598;48.648;8.908;2023-04-30T11:13:39;18.70;76.10
11089;DHT22;5598;48.648;8.908;2023-04-30T11:16:08;18.50;76.30
11089;DHT22;5598;48.648;8.908;2023-04-30T11:18:41;18.30;75.80
11089;DHT22;5598;48.648;8.908;2023-04-30T11:21:09;18.20;77.40
11089;DHT22;5598;48.648;8.908;2023-04-30T11:23:36;18.30;78.40
11089;DHT22;5598;48.648;8.908;2023-04-30T11:26:06;18.20;77.80
11089;DHT22;5598;48.648;8.908;2023-04-30T11:28:35;18.20;77.70
11089;DHT22;5598;48.648;8.908;2023-04-30T11:31:03;18.40;78.30
11089;DHT22;5598;48.648;8.908;2023-04-30T11:33:32;18.50;76.90
11089;DHT22;5598;48.648;8.908;2023-04-30T11:36:00;18.40;74.40
11089;DHT22;5598;48.648;8.908;2023-04-30T11:38:28;18.30;75.50
11089;DHT22;5598;48.648;8.908;2023-04-30T11:40:55;18.30;77.30
11089;DHT22;5598;48.648;8.908;2023-04-30T11:43:23;18.30;76.70
11089;DHT22;5598;48.648;8.908;2023-04-30T11:46:06;18.20;73.10
11089;DHT22;5598;48.648;8.908;2023-04-30T11:48:36;17.60;72.20
11089;DHT22;5598;48.648;8.908;2023-04-30T11:51:05;17.20;75.60
11089;DHT22;5598;48.648;8.908;2023-04-30T11:53:39;17.10;74.00
11089;DHT22;5598;48.648;8.908;2023-04-30T11:56:06;17.10;74.20
11089;DHT22;5598;48.648;8.908;2023-04-30T11:58:34;17.30;74.70
11089;DHT22;5598;48.648;8.908;2023-04-30T12:01:02;17.30;73.10
11089;DHT22;5598;48.648;8.908;2023-04-30T12:03:31;17.50;74.00
11089;DHT22;5598;48.648;8.908;2023-04-30T12:05:59;17.60;74.40
11089;DHT22;5598;48.648;8.908;2023-04-30T12:08:27;17.70;72.60
11089;DHT22;5598;48.648;8.908;2023-04-30T12:10:54;17.80;74.00
11089;DHT22;5598;48.648;8.908;2023-04-30T12:13:21;18.00;74.40
11089;DHT22;5598;48.648;8.908;2023-04-30T12:15:57;18.40;75.10
11089;DHT22;5598;48.648;8.908;2023-04-30T12:18:24;18.20;73.20
11089;DHT22;5598;48.648;8.908;2023-04-30T12:20:52;17.80;73.90
11089;DHT22;5598;48.648;8.908;2023-04-30T12:23:20;17.70;73.10
11089;DHT22;5598;48.648;8.908;2023-04-30T12:25:47;17.80;72.20
11089;DHT22;5598;48.648;8.908;2023-04-30T12:28:14;18.00;73.50
11089;DHT22;5598;48.648;8.908;2023-04-30T12:30:41;17.80;73.30
11089;DHT22;5598;48.648;8.908;2023-04-30T12:33:09;17.90;72.00
11089;DHT22;5598;48.648;8.908;2023-04-30T12:35:41;18.00;72.90
11089;DHT22;5598;48.648;8.908;2023-04-30T12:38:08;18.40;72.30
11089;DHT22;5598;48.648;8.908;2023-04-30T12:40:36;18.90;73.10
11089;DHT22;5598;48.648;8.908;2023-04-30T12:43:04;19.10;73.00
11089;DHT22;5598;48.648;8.908;2023-04-30T12:45:52;19.20;67.90
11089;DHT22;5598;48.648;8.908;2023-04-30T12:48:21;19.40;70.70
11089;DHT22;5598;48.648;8.908;2023-04-30T12:50:52;19.80;72.10
11089;DHT22;5598;48.648;8.908;2023-04-30T12:53:20;20.00;70.10
11089;DHT22;5598;48.648;8.908;2023-04-30T12:56:11;20.10;70.40
11089;DHT22;5598;48.648;8.908;2023-04-30T12:58:40;20.20;71.20
11089;DHT22;5598;48.648;8.908;2023-04-30T13:01:10;20.60;69.30
11089;DHT22;5598;48.648;8.908;2023-04-30T13:03:38;20.90;70.70
11089;DHT22;5598;48.648;8.908;2023-04-30T13:06:05;21.40;69.80
11089;DHT22;5598;48.648;8.908;2023-04-30T13:08:32;21.50;66.40
11089;DHT22;5598;48.648;8.908;2023-04-30T13:10:58;21.50;67.20
11089;DHT22;5598;48.648;8.908;2023-04-30T13:13:26;21.00;64.50
11089;DHT22;5598;48.648;8.908;2023-04-30T13:15:53;20.70;66.50
11089;DHT22;5598;48.648;8.908;2023-04-30T13:18:20;20.20;66.30
11089;DHT22;5598;48.648;8.908;2023-04-30T13:20:47;20.90;68.20
11089;DHT22;5598;48.648;8.908;2023-04-30T13:23:13;21.80;66.80
11089;DHT22;5598;48.648;8.908;2023-04-30T13:25:40;21.80;64.40
11089;DHT22;5598;48.648;8.908;2023-04-30T13:28:08;21.60;64.80
11089;DHT22;5598;48.648;8.908;2023-04-30T13:30:36;21.80;66.10
11089;DHT22;5598;48.648;8.908;2023-04-30T13:33:03;22.60;66.90
11089;DHT22;5598;48.648;8.908;2023-04-30T13:35:29;23.50;65.70
11089;DHT22;5598;48.648;8.908;2023-04-30T13:37:58;23.60;63.50
11089;DHT22;5598;48.648;8.908;2023-04-30T13:40:25;23.50;63.20
11089;DHT22;5598;48.648;8.908;2023-04-30T13:42:51;23.40;62.30
11089;DHT22;5598;48.648;8.908;2023-04-30T13:45:18;22.80;61.70
11089;DHT22;5598;48.648;8.908;2023-04-30T13:47:46;22.20;62.10
11089;DHT22;5598;48.648;8.908;2023-04-30T13:50:13;21.10;64.20
11089;DHT22;5598;48.648;8.908;2023-04-30T13:52:40;20.60;65.50
11089;DHT22;5598;48.648;8.908;2023-04-30T13:55:08;19.90;65.00
11089;DHT22;5598;48.648;8.908;2023-04-30T13:57:34;19.90;66.70
11089;DHT22;5598;48.648;8.908;2023-04-30T14:00:02;19.90;66.00
11089;DHT22;5598;48.648;8.908;2023-04-30T14:02:30;20.00;67.60
11089;DHT22;5598;48.648;8.908;2023-04-30T14:04:58;20.00;67.20
11089;DHT22;5598;48.648;8.908;2023-04-30T14:07:27;19.90;68.10
11089;DHT22;5598;48.648;8.908;2023-04-30T14:09:54;19.80;67.10
11089;DHT22;5598;48.648;8.908;2023-04-30T14:12:21;19.80;67.80
11089;DHT22;5598;48.648;8.908;2023-04-30T14:14:49;19.90;68.70
11089;DHT22;5598;48.648;8.908;2023-04-30T14:17:15;20.10;69.20
11089;DHT22;5598;48.648;8.908;2023-04-30T14:19:42;20.20;68.90
11089;DHT22;5598;48.648;8.908;2023-04-30T14:22:10;20.50;69.00
11089;DHT22;5598;48.648;8.908;2023-04-30T14:24:37;20.50;69.00
11089;DHT22;5598;48.648;8.908;2023-04-30T14:27:04;20.40;67.30
11089;DHT22;5598;48.648;8.908;2023-04-30T14:29:31;20.60;67.80
11089;DHT22;5598;48.648;8.908;2023-04-30T14:31:58;21.00;68.60
11089;DHT22;5598;48.648;8.908;2023-04-30T14:34:25;21.10;69.00
11089;DHT22;5598;48.648;8.908;2023-04-30T14:36:52;21.30;67.00
11089;DHT22;5598;48.648;8.908;2023-04-30T14:39:20;21.20;66.00
11089;DHT22;5598;48.648;8.908;2023-04-30T14:41:47;21.10;65.40
11089;DHT22;5598;48.648;8.908;2023-04-30T14:44:14;20.90;68.20
11089;DHT22;5598;48.648;8.908;2023-04-30T14:46:41;21.00;67.60
11089;DHT22;5598;48.648;8.908;2023-04-30T14:49:07;21.00;66.70
11089;DHT22;5598;48.648;8.908;2023-04-30T14:51:34;20.60;66.50
11089;DHT22;5598;48.648;8.908;2023-04-30T14:54:01;20.40;65.00
11089;DHT22;5598;48.648;8.908;2023-04-30T14:56:29;20.30;67.30
11089;DHT22;5598;48.648;8.908;2023-04-30T14:58:56;20.20;66.50
11089;DHT22;5598;48.648;8.908;2023-04-30T15:01:23;20.10;67.00
11089;DHT22;5598;48.648;8.908;2023-04-30T15:03:50;20.00;67.20
11089;DHT22;5598;48.648;8.908;2023-04-30T15:06:17;19.90;65.50
11089;DHT22;5598;48.648;8.908;2023-04-30T15:08:44;19.80;68.20
11089;DHT22;5598;48.648;8.908;2023-04-30T15:11:11;19.60;66.80
11089;DHT22;5598;48.648;8.908;2023-04-30T15:13:40;19.30;66.80
11089;DHT22;5598;48.648;8.908;2023-04-30T15:16:07;18.90;68.00
11089;DHT22;5598;48.648;8.908;2023-04-30T15:18:34;18.80;68.70
11089;DHT22;5598;48.648;8.908;2023-04-30T15:21:01;18.90;70.80
11089;DHT22;5598;48.648;8.908;2023-04-30T15:23:28;19.00;70.70
11089;DHT22;5598;48.648;8.908;2023-04-30T15:25:55;19.10;70.20
11089;DHT22;5598;48.648;8.908;2023-04-30T15:28:22;19.20;69.40
11089;DHT22;5598;48.648;8.908;2023-04-30T15:30:51;19.30;69.60
11089;DHT22;5598;48.648;8.908;2023-04-30T15:33:17;19.30;68.30
11089;DHT22;5598;48.648;8.908;2023-04-30T15:35:44;19.20;68.20
11089;DHT22;5598;48.648;8.908;2023-04-30T15:38:11;19.10;68.60
11089;DHT22;5598;48.648;8.908;2023-04-30T15:40:38;19.10;67.90
11089;DHT22;5598;48.648;8.908;2023-04-30T15:43:05;19.10;68.80
11089;DHT22;5598;48.648;8.908;2023-04-30T15:45:32;19.00;68.20
11089;DHT22;5598;48.648;8.908;2023-04-30T15:48:00;19.00;69.00
11089;DHT22;5598;48.648;8.908;2023-04-30T15:50:27;18.90;70.00
11089;DHT22;5598;48.648;8.908;2023-04-30T15:52:54;18.80;69.30